CheckWX is a tool to help pilots better visualize weather data.  It is not intended as a substitute for an official pre-flight weather briefing.

00:57:20 UTC

KORD METAR
Chicago O'hare International Airport
Chicago, Illinois, USA
Current

1 hour ago

KORD 202351Z 06009KT 10SM FEW150 15/M08 A2980 RMK AO2 SLP094 T01501083 10178 20150 53003
Observed
Apr-20 @ 23:51 UTC
Wind
  • 060° at 9 KTS
Visibility
10 SM
Flight Rules
VFR
Cloud Levels
  • Few at 15,000' AGL
Temperature
15°C / 59°F
Dewpoint
-8°C / 18°F
Humidity
20%
Altimeter
29.8" Hg
Pressure
1009.12 hPa
Previous

2 hours ago

KORD 202251Z 04008KT 10SM FEW150 18/M09 A2979 RMK AO2 SLP088 T01781089
Observed
Apr-20 @ 22:51 UTC
Wind
  • 040° at 8 KTS
Visibility
10 SM
Flight Rules
VFR
Cloud Levels
  • Few at 15,000' AGL
Temperature
18°C / 64°F
Dewpoint
-9°C / 16°F
Humidity
15%
Altimeter
29.79" Hg
Pressure
1008.82 hPa
Previous

3 hours ago

KORD 202151Z 36015KT 10SM FEW150 18/M11 A2978 RMK AO2 SLP086 T01781106
Observed
Apr-20 @ 21:51 UTC
Wind
  • 360° at 15 KTS
Visibility
10 SM
Flight Rules
VFR
Cloud Levels
  • Few at 15,000' AGL
Temperature
18°C / 64°F
Dewpoint
-11°C / 12°F
Humidity
13%
Altimeter
29.78" Hg
Pressure
1008.42 hPa